sensor_id;sensor_type;location;lat;lon;timestamp;pressure;altitude;pressure_sealevel;temperature;humidity
7441;BME280;29616;51.950;8.572;2023-04-01T00:01:52;97908.69;;;10.54;100.00
7441;BME280;29616;51.950;8.572;2023-04-01T00:04:23;97908.06;;;10.52;100.00
7441;BME280;29616;51.950;8.572;2023-04-01T00:06:52;97911.88;;;10.58;100.00
7441;BME280;29616;51.950;8.572;2023-04-01T00:09:22;97910.63;;;10.54;100.00
7441;BME280;29616;51.950;8.572;2023-04-01T00:11:51;97912.94;;;10.63;100.00
7441;BME280;29616;51.950;8.572;2023-04-01T00:14:20;97906.84;;;10.61;100.00
7441;BME280;29616;51.950;8.572;2023-04-01T00:16:48;97902.59;;;10.52;100.00
7441;BME280;29616;51.950;8.572;2023-04-01T00:19:19;97890.84;;;10.45;100.00
7441;BME280;29616;51.950;8.572;2023-04-01T00:21:47;97904.94;;;10.55;100.00
7441;BME280;29616;51.950;8.572;2023-04-01T00:24:17;97904.47;;;10.45;100.00
7441;BME280;29616;51.950;8.572;2023-04-01T00:26:47;97905.56;;;10.57;100.00
7441;BME280;29616;51.950;8.572;2023-04-01T00:29:18;97901.34;;;10.55;100.00
7441;BME280;29616;51.950;8.572;2023-04-01T00:31:46;97884.34;;;10.53;100.00
7441;BME280;29616;51.950;8.572;2023-04-01T00:34:17;97894.63;;;10.57;100.00
7441;BME280;29616;51.950;8.572;2023-04-01T00:36:45;97896.75;;;10.55;100.00
7441;BME280;29616;51.950;8.572;2023-04-01T00:39:15;97896.53;;;10.50;100.00
7441;BME280;29616;51.950;8.572;2023-04-01T00:41:43;97892.75;;;10.58;100.00
7441;BME280;29616;51.950;8.572;2023-04-01T00:44:16;97883.94;;;10.62;100.00
7441;BME280;29616;51.950;8.572;2023-04-01T00:46:48;97883.94;;;10.62;100.00
7441;BME280;29616;51.950;8.572;2023-04-01T00:49:20;97886.22;;;10.52;100.00
7441;BME280;29616;51.950;8.572;2023-04-01T00:51:53;97890.03;;;10.58;100.00
7441;BME280;29616;51.950;8.572;2023-04-01T00:54:22;97878.03;;;10.52;100.00
7441;BME280;29616;51.950;8.572;2023-04-01T00:56:56;97874.66;;;10.57;100.00
7441;BME280;29616;51.950;8.572;2023-04-01T00:59:30;97878.28;;;10.64;100.00
7441;BME280;29616;51.950;8.572;2023-04-01T01:02:04;97876.41;;;10.64;100.00
7441;BME280;29616;51.950;8.572;2023-04-01T01:04:34;97880.56;;;10.54;100.00
7441;BME280;29616;51.950;8.572;2023-04-01T01:07:09;97878.47;;;10.56;100.00
7441;BME280;29616;51.950;8.572;2023-04-01T01:09:45;97841.88;;;10.37;100.00
7441;BME280;29616;51.950;8.572;2023-04-01T01:12:18;97874.66;;;10.57;100.00
7441;BME280;29616;51.950;8.572;2023-04-01T01:14:55;97867.53;;;10.62;100.00
7441;BME280;29616;51.950;8.572;2023-04-01T01:17:32;97874.66;;;10.57;100.00
7441;BME280;29616;51.950;8.572;2023-04-01T01:23:11;97878.47;;;10.62;100.00
7441;BME280;29616;51.950;8.572;2023-04-01T01:25:47;97870.69;;;10.59;100.00
7441;BME280;29616;51.950;8.572;2023-04-01T01:28:31;97863.75;;;10.50;100.00
7441;BME280;29616;51.950;8.572;2023-04-01T01:31:10;97871.56;;;10.66;100.00
7441;BME280;29616;51.950;8.572;2023-04-01T01:33:52;97873.88;;;10.69;100.00
7441;BME280;29616;51.950;8.572;2023-04-01T01:36:29;97873.66;;;10.71;100.00
7441;BME280;29616;51.950;8.572;2023-04-01T01:39:05;97868.41;;;10.56;100.00
7441;BME280;29616;51.950;8.572;2023-04-01T01:41:37;97878.06;;;10.65;100.00
7441;BME280;29616;51.950;8.572;2023-04-01T01:44:09;97864.19;;;10.54;100.00
7441;BME280;29616;51.950;8.572;2023-04-01T01:46:42;97869.22;;;10.50;100.00
7441;BME280;29616;51.950;8.572;2023-04-01T01:49:12;97874.47;;;10.58;100.00
7441;BME280;29616;51.950;8.572;2023-04-01T01:51:43;97878.88;;;10.59;100.00
7441;BME280;29616;51.950;8.572;2023-04-01T01:54:13;97874.03;;;10.48;100.00
7441;BME280;29616;51.950;8.572;2023-04-01T01:56:43;97874.03;;;10.48;100.00
7441;BME280;29616;51.950;8.572;2023-04-01T01:59:14;97872.97;;;10.43;100.00
7441;BME280;29616;51.950;8.572;2023-04-01T02:01:46;97874.41;;;10.32;100.00
7441;BME280;29616;51.950;8.572;2023-04-01T02:04:17;97865.16;;;10.26;100.00
7441;BME280;29616;51.950;8.572;2023-04-01T02:06:51;97848.94;;;10.25;100.00
7441;BME280;29616;51.950;8.572;2023-04-01T02:09:21;97877.16;;;10.39;100.00
7441;BME280;29616;51.950;8.572;2023-04-01T02:11:51;97875.03;;;10.41;100.00
7441;BME280;29616;51.950;8.572;2023-04-01T02:14:22;97864.13;;;10.34;100.00
7441;BME280;29616;51.950;8.572;2023-04-01T02:16:53;97862.81;;;10.30;100.00
7441;BME280;29616;51.950;8.572;2023-04-01T02:19:26;97859.25;;;10.23;100.00
7441;BME280;29616;51.950;8.572;2023-04-01T02:21:58;97861.56;;;10.26;100.00
7441;BME280;29616;51.950;8.572;2023-04-01T02:24:30;97862.59;;;10.25;100.00
7441;BME280;29616;51.950;8.572;2023-04-01T02:27:01;97873.75;;;10.30;100.00
7441;BME280;29616;51.950;8.572;2023-04-01T02:29:31;97863.69;;;10.30;100.00
7441;BME280;29616;51.950;8.572;2023-04-01T02:32:01;97864.13;;;10.34;100.00
7441;BME280;29616;51.950;8.572;2023-04-01T02:34:31;97861.56;;;10.26;100.00
7441;BME280;29616;51.950;8.572;2023-04-01T02:37:03;97867.69;;;10.41;100.00
7441;BME280;29616;51.950;8.572;2023-04-01T02:39:32;97861.59;;;10.39;100.00
7441;BME280;29616;51.950;8.572;2023-04-01T02:42:00;97869.19;;;10.44;100.00
7441;BME280;29616;51.950;8.572;2023-04-01T02:44:29;97856.19;;;10.46;100.00
7441;BME280;29616;51.950;8.572;2023-04-01T02:46:59;97862.50;;;10.53;100.00
7441;BME280;29616;51.950;8.572;2023-04-01T02:49:28;97869.63;;;10.47;100.00
7441;BME280;29616;51.950;8.572;2023-04-01T02:52:00;97867.69;;;10.41;100.00
7441;BME280;29616;51.950;8.572;2023-04-01T02:54:29;97865.41;;;10.45;100.00
7441;BME280;29616;51.950;8.572;2023-04-01T02:56:58;97853.63;;;10.44;100.00
7441;BME280;29616;51.950;8.572;2023-04-01T02:59:28;97864.56;;;10.44;100.00
7441;BME280;29616;51.950;8.572;2023-04-01T03:01:57;97867.69;;;10.41;100.00
7441;BME280;29616;51.950;8.572;2023-04-01T03:04:27;97858.06;;;10.52;100.00
7441;BME280;29616;51.950;8.572;2023-04-01T03:06:56;97864.78;;;10.43;100.00
7441;BME280;29616;51.950;8.572;2023-04-01T03:09:25;97869.22;;;10.50;100.00
7441;BME280;29616;51.950;8.572;2023-04-01T03:11:56;97867.91;;;10.40;100.00
7441;BME280;29616;51.950;8.572;2023-04-01T03:14:27;97877.59;;;10.49;100.00
7441;BME280;29616;51.950;8.572;2023-04-01T03:16:56;97879.25;;;10.37;100.00
7441;BME280;29616;51.950;8.572;2023-04-01T03:19:25;97862.00;;;10.36;100.00
7441;BME280;29616;51.950;8.572;2023-04-01T03:21:54;97880.94;;;10.44;100.00
7441;BME280;29616;51.950;8.572;2023-04-01T03:24:22;97869.16;;;10.37;100.00
7441;BME280;29616;51.950;8.572;2023-04-01T03:26:51;97878.16;;;10.31;100.00
7441;BME280;29616;51.950;8.572;2023-04-01T03:29:22;97882.81;;;10.37;100.00
7441;BME280;29616;51.950;8.572;2023-04-01T03:31:50;97879.47;;;10.35;100.00
7441;BME280;29616;51.950;8.572;2023-04-01T03:34:20;97876.72;;;10.35;100.00
7441;BME280;29616;51.950;8.572;2023-04-01T03:36:50;97878.41;;;10.36;100.00
7441;BME280;29616;51.950;8.572;2023-04-01T03:39:19;97881.94;;;10.23;100.00
7441;BME280;29616;51.950;8.572;2023-04-01T03:41:50;97883.19;;;10.27;100.00
7441;BME280;29616;51.950;8.572;2023-04-01T03:44:19;97884.25;;;10.26;100.00
7441;BME280;29616;51.950;8.572;2023-04-01T03:46:52;97889.09;;;10.31;100.00
7441;BME280;29616;51.950;8.572;2023-04-01T03:49:22;97888.28;;;10.37;100.00
7441;BME280;29616;51.950;8.572;2023-04-01T03:51:51;97886.81;;;10.41;100.00
7441;BME280;29616;51.950;8.572;2023-04-01T03:54:21;97892.25;;;10.34;100.00
7441;BME280;29616;51.950;8.572;2023-04-01T03:56:52;97888.50;;;10.42;100.00
7441;BME280;29616;51.950;8.572;2023-04-01T03:59:21;97878.84;;;10.40;100.00
7441;BME280;29616;51.950;8.572;2023-04-01T04:01:53;97890.78;;;10.39;100.00
7441;BME280;29616;51.950;8.572;2023-04-01T04:04:23;97889.72;;;10.33;100.00
7441;BME280;29616;51.950;8.572;2023-04-01T04:06:52;97880.91;;;10.31;100.00
7441;BME280;29616;51.950;8.572;2023-04-01T04:09:23;97893.91;;;10.29;100.00
7441;BME280;29616;51.950;8.572;2023-04-01T04:11:53;97891.81;;;10.24;100.00
7441;BME280;29616;51.950;8.572;2023-04-01T04:14:23;97886.53;;;10.23;100.00
7441;BME280;29616;51.950;8.572;2023-04-01T04:16:51;97886.72;;;10.15;100.00
7441;BME280;29616;51.950;8.572;2023-04-01T04:19:21;97893.88;;;10.16;100.00
7441;BME280;29616;51.950;8.572;2023-04-01T04:21:50;97882.94;;;10.16;100.00
7441;BME280;29616;51.950;8.572;2023-04-01T04:24:20;97879.59;;;10.14;100.00
7441;BME280;29616;51.950;8.572;2023-04-01T04:27:05;97886.22;;;10.05;100.00
7441;BME280;29616;51.950;8.572;2023-04-01T04:29:41;97880.63;;;10.13;100.00
7441;BME280;29616;51.950;8.572;2023-04-01T04:32:11;97890.50;;;10.14;100.00
7441;BME280;29616;51.950;8.572;2023-04-01T04:34:41;97895.13;;;10.20;100.00
7441;BME280;29616;51.950;8.572;2023-04-01T04:37:09;97905.97;;;10.07;100.00
7441;BME280;29616;51.950;8.572;2023-04-01T04:39:38;97893.78;;;10.03;100.00
7441;BME280;29616;51.950;8.572;2023-04-01T04:42:07;97879.06;;;10.04;100.00
7441;BME280;29616;51.950;8.572;2023-04-01T04:44:36;97898.16;;;9.97;100.00
7441;BME280;29616;51.950;8.572;2023-04-01T04:47:06;97900.91;;;10.04;100.00
7441;BME280;29616;51.950;8.572;2023-04-01T04:49:36;97905.94;;;10.00;100.00
7441;BME280;29616;51.950;8.572;2023-04-01T04:52:10;97895.03;;;10.07;100.00
7441;BME280;29616;51.950;8.572;2023-04-01T04:54:39;97905.09;;;10.06;100.00
7441;BME280;29616;51.950;8.572;2023-04-01T04:57:07;97908.84;;;9.99;100.00
7441;BME280;29616;51.950;8.572;2023-04-01T04:59:44;97915.78;;;9.95;100.00
7441;BME280;29616;51.950;8.572;2023-04-01T05:02:36;97913.06;;;10.01;100.00
7441;BME280;29616;51.950;8.572;2023-04-01T05:05:06;97917.28;;;10.04;100.00
7441;BME280;29616;51.950;8.572;2023-04-01T05:07:37;97914.47;;;9.91;100.00
7441;BME280;29616;51.950;8.572;2023-04-01T05:10:06;97918.09;;;9.98;100.00
7441;BME280;29616;51.950;8.572;2023-04-01T05:12:37;97913.69;;;10.03;100.00
7441;BME280;29616;51.950;8.572;2023-04-01T05:15:09;97918.97;;;10.05;100.00
7441;BME280;29616;51.950;8.572;2023-04-01T05:17:39;97924.19;;;10.00;100.00
7441;BME280;29616;51.950;8.572;2023-04-01T05:20:11;97925.22;;;9.99;100.00
7441;BME280;29616;51.950;8.572;2023-04-01T05:22:41;97924.13;;;9.87;100.00
7441;BME280;29616;51.950;8.572;2023-04-01T05:25:11;97929.44;;;10.01;100.00
7441;BME280;29616;51.950;8.572;2023-04-01T05:27:40;97929.00;;;9.98;100.00
7441;BME280;29616;51.950;8.572;2023-04-01T05:30:11;97924.13;;;9.93;100.00
7441;BME280;29616;51.950;8.572;2023-04-01T05:33:01;97928.56;;;9.94;100.00
7441;BME280;29616;51.950;8.572;2023-04-01T05:35:30;97937.44;;;10.03;100.00
7441;BME280;29616;51.950;8.572;2023-04-01T05:38:03;97941.19;;;10.02;100.00
7441;BME280;29616;51.950;8.572;2023-04-01T05:40:33;97929.19;;;9.96;100.00
7441;BME280;29616;51.950;8.572;2023-04-01T05:43:04;97942.44;;;9.99;100.00
7441;BME280;29616;51.950;8.572;2023-04-01T05:45:34;97937.03;;;10.06;100.00
7441;BME280;29616;51.950;8.572;2023-04-01T05:48:29;97934.03;;;9.94;100.00
7441;BME280;29616;51.950;8.572;2023-04-01T05:50:59;97938.22;;;9.97;100.00
7441;BME280;29616;51.950;8.572;2023-04-01T05:53:29;97938.22;;;9.97;100.00
7441;BME280;29616;51.950;8.572;2023-04-01T05:56:01;97935.34;;;10.05;100.00
7441;BME280;29616;51.950;8.572;2023-04-01T05:58:36;97937.84;;;10.00;100.00
7441;BME280;29616;51.950;8.572;2023-04-01T06:01:10;97934.94;;;10.08;100.00
7441;BME280;29616;51.950;8.572;2023-04-01T06:03:44;97935.84;;;10.15;100.00
7441;BME280;29616;51.950;8.572;2023-04-01T06:06:13;97946.16;;;10.19;100.00
7441;BME280;29616;51.950;8.572;2023-04-01T06:08:45;97945.97;;;10.21;100.00
7441;BME280;29616;51.950;8.572;2023-04-01T06:11:19;97934.47;;;10.32;100.00
7441;BME280;29616;51.950;8.572;2023-04-01T06:13:57;97938.91;;;10.40;100.00
7441;BME280;29616;51.950;8.572;2023-04-01T06:16:38;97956.25;;;10.73;100.00
7441;BME280;29616;51.950;8.572;2023-04-01T06:19:14;97946.16;;;10.67;100.00
7441;BME280;29616;51.950;8.572;2023-04-01T06:22:01;97945.66;;;10.50;100.00
7441;BME280;29616;51.950;8.572;2023-04-01T06:24:53;97952.88;;;10.71;100.00
7441;BME280;29616;51.950;8.572;2023-04-01T06:27:36;97948.66;;;10.62;100.00
7441;BME280;29616;51.950;8.572;2023-04-01T06:36:15;97962.78;;;10.78;100.00
7441;BME280;29616;51.950;8.572;2023-04-01T06:38:56;97962.19;;;10.89;100.00
7441;BME280;29616;51.950;8.572;2023-04-01T06:41:58;97967.66;;;10.83;100.00
7441;BME280;29616;51.950;8.572;2023-04-01T06:44:36;97958.97;;;10.66;100.00
7441;BME280;29616;51.950;8.572;2023-04-01T06:47:33;97955.78;;;10.56;100.00
7441;BME280;29616;51.950;8.572;2023-04-01T06:50:28;97968.81;;;10.67;100.00
7441;BME280;29616;51.950;8.572;2023-04-01T06:53:21;97970.69;;;10.60;100.00
7441;BME280;29616;51.950;8.572;2023-04-01T06:56:14;97975.53;;;10.58;100.00
7441;BME280;29616;51.950;8.572;2023-04-01T06:59:19;97966.31;;;10.66;100.00
7441;BME280;29616;51.950;8.572;2023-04-01T07:01:50;97969.22;;;10.58;100.00
7441;BME280;29616;51.950;8.572;2023-04-01T07:04:21;97975.06;;;10.48;100.00
7441;BME280;29616;51.950;8.572;2023-04-01T07:06:55;97979.66;;;10.41;100.00
7441;BME280;29616;51.950;8.572;2023-04-01T07:09:26;97978.41;;;10.44;100.00
7441;BME280;29616;51.950;8.572;2023-04-01T07:12:19;97976.38;;;10.59;100.00
7441;BME280;29616;51.950;8.572;2023-04-01T07:15:14;97976.75;;;10.49;100.00
7441;BME280;29616;51.950;8.572;2023-04-01T07:17:45;97986.41;;;10.52;100.00
7441;BME280;29616;51.950;8.572;2023-04-01T07:20:18;97983.31;;;10.61;100.00
7441;BME280;29616;51.950;8.572;2023-04-01T07:22:49;97997.31;;;10.45;100.00
7441;BME280;29616;51.950;8.572;2023-04-01T07:25:43;98000.91;;;10.52;100.00
7441;BME280;29616;51.950;8.572;2023-04-01T07:28:34;97989.19;;;10.65;100.00
7441;BME280;29616;51.950;8.572;2023-04-01T07:31:20;97998.00;;;10.60;100.00
7441;BME280;29616;51.950;8.572;2023-04-01T07:33:55;98002.91;;;10.78;100.00
7441;BME280;29616;51.950;8.572;2023-04-01T07:36:31;97993.72;;;10.85;100.00
7441;BME280;29616;51.950;8.572;2023-04-01T07:39:06;98004.69;;;10.99;100.00
7441;BME280;29616;51.950;8.572;2023-04-01T07:42:01;98010.16;;;10.99;100.00
7441;BME280;29616;51.950;8.572;2023-04-01T07:44:36;98013.31;;;11.09;100.00
7441;BME280;29616;51.950;8.572;2023-04-01T07:47:14;98001.78;;;11.20;100.00
7441;BME280;29616;51.950;8.572;2023-04-01T07:49:50;98013.16;;;11.30;100.00
7441;BME280;29616;51.950;8.572;2023-04-01T07:52:29;98014.41;;;11.34;100.00
7441;BME280;29616;51.950;8.572;2023-04-01T07:55:08;98014.63;;;11.26;100.00
7441;BME280;29616;51.950;8.572;2023-04-01T07:57:43;98002.22;;;11.30;100.00
7441;BME280;29616;51.950;8.572;2023-04-01T08:00:18;98017.81;;;11.42;100.00
7441;BME280;29616;51.950;8.572;2023-04-01T08:03:14;98020.34;;;11.31;100.00
7441;BME280;29616;51.950;8.572;2023-04-01T08:05:52;98023.94;;;11.51;100.00
7441;BME280;29616;51.950;8.572;2023-04-01T08:08:29;98024.13;;;11.56;100.00
7441;BME280;29616;51.950;8.572;2023-04-01T08:11:26;98024.13;;;11.43;100.00
7441;BME280;29616;51.950;8.572;2023-04-01T08:14:20;98038.06;;;11.68;100.00
7441;BME280;29616;51.950;8.572;2023-04-01T08:17:12;98028.34;;;11.58;100.00
7441;BME280;29616;51.950;8.572;2023-04-01T08:19:53;98042.06;;;11.72;100.00
7441;BME280;29616;51.950;8.572;2023-04-01T08:22:29;98041.22;;;11.84;100.00
7441;BME280;29616;51.950;8.572;2023-04-01T08:25:02;98044.19;;;12.15;100.00
7441;BME280;29616;51.950;8.572;2023-04-01T08:27:37;98047.09;;;12.27;100.00
7441;BME280;29616;51.950;8.572;2023-04-01T08:30:16;98050.28;;;12.18;100.00
7441;BME280;29616;51.950;8.572;2023-04-01T08:32:48;98049.22;;;11.92;100.00
7441;BME280;29616;51.950;8.572;2023-04-01T08:35:27;98060.63;;;12.02;100.00
7441;BME280;29616;51.950;8.572;2023-04-01T08:38:04;98061.84;;;12.33;100.00
7441;BME280;29616;51.950;8.572;2023-04-01T08:40:48;98052.78;;;12.19;100.00
7441;BME280;29616;51.950;8.572;2023-04-01T08:43:28;98065.44;;;12.13;100.00
7441;BME280;29616;51.950;8.572;2023-04-01T08:46:07;98067.53;;;12.11;100.00
7441;BME280;29616;51.950;8.572;2023-04-01T08:48:51;98062.28;;;12.16;100.00
7441;BME280;29616;51.950;8.572;2023-04-01T08:54:25;98065.66;;;12.12;100.00
7441;BME280;29616;51.950;8.572;2023-04-01T08:57:01;98068.00;;;11.89;100.00
7441;BME280;29616;51.950;8.572;2023-04-01T08:59:56;98064.41;;;11.88;100.00
7441;BME280;29616;51.950;8.572;2023-04-01T09:06:11;98071.13;;;12.25;100.00
7441;BME280;29616;51.950;8.572;2023-04-01T09:08:52;98072.59;;;12.14;100.00
7441;BME280;29616;51.950;8.572;2023-04-01T09:11:28;98079.72;;;12.55;100.00
7441;BME280;29616;51.950;8.572;2023-04-01T09:14:04;98077.34;;;12.78;100.00
7441;BME280;29616;51.950;8.572;2023-04-01T09:16:40;98074.22;;;13.25;100.00
7441;BME280;29616;51.950;8.572;2023-04-01T09:19:21;98073.97;;;13.40;100.00
7441;BME280;29616;51.950;8.572;2023-04-01T09:22:03;98083.25;;;13.39;100.00
7441;BME280;29616;51.950;8.572;2023-04-01T09:24:46;98072.50;;;13.31;100.00
7441;BME280;29616;51.950;8.572;2023-04-01T09:27:28;98082.88;;;13.67;100.00
7441;BME280;29616;51.950;8.572;2023-04-01T09:30:06;98082.97;;;13.54;100.00
7441;BME280;29616;51.950;8.572;2023-04-01T09:33:00;98098.56;;;13.02;100.00
7441;BME280;29616;51.950;8.572;2023-04-01T09:35:39;98091.47;;;12.75;100.00
7441;BME280;29616;51.950;8.572;2023-04-01T09:38:20;98102.47;;;12.62;100.00
7441;BME280;29616;51.950;8.572;2023-04-01T09:40:56;98106.53;;;12.40;100.00
7441;BME280;29616;51.950;8.572;2023-04-01T09:43:44;98078.50;;;12.11;100.00
7441;BME280;29616;51.950;8.572;2023-04-01T09:46:20;98109.47;;;12.19;100.00
7441;BME280;29616;51.950;8.572;2023-04-01T09:49:01;98107.34;;;12.47;100.00
7441;BME280;29616;51.950;8.572;2023-04-01T09:51:37;98109.22;;;12.59;100.00
7441;BME280;29616;51.950;8.572;2023-04-01T09:54:13;98113.00;;;12.71;100.00
7441;BME280;29616;51.950;8.572;2023-04-01T10:00:20;98108.72;;;12.95;100.00
7441;BME280;29616;51.950;8.572;2023-04-01T10:09:22;98120.09;;;13.94;100.00
7441;BME280;29616;51.950;8.572;2023-04-01T10:12:29;98126.69;;;13.86;100.00
7441;BME280;29616;51.950;8.572;2023-04-01T10:15:17;98124.41;;;13.77;100.00
7441;BME280;29616;51.950;8.572;2023-04-01T10:20:39;98131.50;;;13.60;100.00
7441;BME280;29616;51.950;8.572;2023-04-01T10:23:41;98117.00;;;13.40;100.00
7441;BME280;29616;51.950;8.572;2023-04-01T10:26:25;98128.47;;;13.30;100.00
7441;BME280;29616;51.950;8.572;2023-04-01T10:29:26;98134.91;;;12.85;100.00
7441;BME280;29616;51.950;8.572;2023-04-01T10:38:08;98130.22;;;12.92;100.00
7441;BME280;29616;51.950;8.572;2023-04-01T10:41:09;98134.44;;;12.94;100.00
7441;BME280;29616;51.950;8.572;2023-04-01T10:44:21;98141.75;;;13.33;100.00
7441;BME280;29616;51.950;8.572;2023-04-01T10:47:24;98134.38;;;13.27;100.00
7441;BME280;29616;51.950;8.572;2023-04-01T10:56:39;98151.69;;;13.65;100.00
7441;BME280;29616;51.950;8.572;2023-04-01T10:59:53;98146.50;;;13.51;100.00
7441;BME280;29616;51.950;8.572;2023-04-01T11:03:41;98156.81;;;13.62;100.00
7441;BME280;29616;51.950;8.572;2023-04-01T11:13:33;98154.63;;;13.26;100.00
7441;BME280;29616;51.950;8.572;2023-04-01T11:25:09;98166.06;;;13.16;100.00
7441;BME280;29616;51.950;8.572;2023-04-01T11:27:54;98163.09;;;13.18;100.00
7441;BME280;29616;51.950;8.572;2023-04-01T11:30:29;98165.19;;;13.22;100.00
7441;BME280;29616;51.950;8.572;2023-04-01T11:33:03;98165.41;;;13.21;100.00
7441;BME280;29616;51.950;8.572;2023-04-01T11:38:40;98178.03;;;13.28;100.00
7441;BME280;29616;51.950;8.572;2023-04-01T11:41:34;98175.25;;;13.42;100.00
7441;BME280;29616;51.950;8.572;2023-04-01T11:44:26;98188.28;;;13.53;100.00
7441;BME280;29616;51.950;8.572;2023-04-01T11:47:18;98183.31;;;13.30;100.00
7441;BME280;29616;51.950;8.572;2023-04-01T11:49:52;98188.41;;;13.20;100.00
7441;BME280;29616;51.950;8.572;2023-04-01T11:52:47;98191.16;;;13.71;100.00
7441;BME280;29616;51.950;8.572;2023-04-01T11:55:35;98193.56;;;13.54;100.00
7441;BME280;29616;51.950;8.572;2023-04-01T11:58:41;98204.56;;;13.48;100.00
7441;BME280;29616;51.950;8.572;2023-04-01T12:01:20;98207.19;;;13.74;100.00
7441;BME280;29616;51.950;8.572;2023-04-01T12:06:41;98204.19;;;13.82;100.00
7441;BME280;29616;51.950;8.572;2023-04-01T12:09:15;98211.22;;;13.71;100.00
7441;BME280;29616;51.950;8.572;2023-04-01T12:11:51;98209.38;;;13.52;100.00
7441;BME280;29616;51.950;8.572;2023-04-01T12:14:27;98218.47;;;13.53;100.00
7441;BME280;29616;51.950;8.572;2023-04-01T12:17:02;98214.75;;;13.85;100.00
7441;BME280;29616;51.950;8.572;2023-04-01T12:19:39;98213.34;;;13.63;100.00
7441;BME280;29616;51.950;8.572;2023-04-01T12:22:15;98222.72;;;13.93;100.00
7441;BME280;29616;51.950;8.572;2023-04-01T12:24:49;98221.03;;;13.92;100.00
7441;BME280;29616;51.950;8.572;2023-04-01T12:33:29;98222.97;;;13.85;100.00
7441;BME280;29616;51.950;8.572;2023-04-01T12:36:08;98231.53;;;13.64;100.00
7441;BME280;29616;51.950;8.572;2023-04-01T12:38:43;98231.63;;;13.88;100.00
7441;BME280;29616;51.950;8.572;2023-04-01T12:41:20;98239.25;;;13.80;100.00
7441;BME280;29616;51.950;8.572;2023-04-01T12:46:52;98248.03;;;13.51;100.00
7441;BME280;29616;51.950;8.572;2023-04-01T12:52:13;98247.66;;;13.41;100.00
7441;BME280;29616;51.950;8.572;2023-04-01T12:57:57;98246.09;;;13.58;100.00
7441;BME280;29616;51.950;8.572;2023-04-01T13:00:42;98249.78;;;13.89;100.00
7441;BME280;29616;51.950;8.572;2023-04-01T13:03:20;98261.91;;;14.13;100.00
7441;BME280;29616;51.950;8.572;2023-04-01T13:06:02;98258.34;;;14.06;100.00
7441;BME280;29616;51.950;8.572;2023-04-01T13:08:41;98256.94;;;13.97;100.00
7441;BME280;29616;51.950;8.572;2023-04-01T13:11:16;98264.25;;;13.59;100.00
7441;BME280;29616;51.950;8.572;2023-04-01T13:14:21;98268.97;;;12.99;100.00
7441;BME280;29616;51.950;8.572;2023-04-01T13:17:02;98275.09;;;12.75;100.00
7441;BME280;29616;51.950;8.572;2023-04-01T13:19:36;98284.16;;;12.75;100.00
7441;BME280;29616;51.950;8.572;2023-04-01T13:22:27;98286.72;;;12.90;100.00
7441;BME280;29616;51.950;8.572;2023-04-01T13:25:03;98295.78;;;12.84;100.00
7441;BME280;29616;51.950;8.572;2023-04-01T13:27:35;98289.44;;;12.57;100.00
7441;BME280;29616;51.950;8.572;2023-04-01T13:30:13;98287.13;;;12.87;100.00
7441;BME280;29616;51.950;8.572;2023-04-01T13:32:48;98296.59;;;12.91;100.00
7441;BME280;29616;51.950;8.572;2023-04-01T13:35:23;98295.34;;;12.74;100.00
7441;BME280;29616;51.950;8.572;2023-04-01T13:38:05;98288.38;;;12.65;100.00
7441;BME280;29616;51.950;8.572;2023-04-01T13:40:44;98289.25;;;12.72;100.00
7441;BME280;29616;51.950;8.572;2023-04-01T13:43:29;98300.63;;;12.56;100.00
7441;BME280;29616;51.950;8.572;2023-04-01T13:46:08;98297.22;;;12.54;100.00
7441;BME280;29616;51.950;8.572;2023-04-01T13:48:54;98302.31;;;12.83;100.00
7441;BME280;29616;51.950;8.572;2023-04-01T13:51:38;98306.94;;;12.76;100.00
7441;BME280;29616;51.950;8.572;2023-04-01T13:57:05;98316.59;;;12.46;100.00
7441;BME280;29616;51.950;8.572;2023-04-01T13:59:40;98307.78;;;12.70;100.00
7441;BME280;29616;51.950;8.572;2023-04-01T14:02:23;98312.84;;;12.73;100.00
7441;BME280;29616;51.950;8.572;2023-04-01T14:05:14;98316.66;;;12.72;100.00
7441;BME280;29616;51.950;8.572;2023-04-01T14:08:11;98313.69;;;12.80;100.00
7441;BME280;29616;51.950;8.572;2023-04-01T14:10:45;98320.63;;;12.69;100.00
7441;BME280;29616;51.950;8.572;2023-04-01T14:13:23;98319.59;;;12.77;100.00
7441;BME280;29616;51.950;8.572;2023-04-01T14:16:21;98322.13;;;12.72;100.00
7441;BME280;29616;51.950;8.572;2023-04-01T14:19:00;98330.97;;;12.94;100.00
7441;BME280;29616;51.950;8.572;2023-04-01T14:21:35;98332.50;;;13.09;100.00
7441;BME280;29616;51.950;8.572;2023-04-01T14:24:08;98333.34;;;13.16;100.00
7441;BME280;29616;51.950;8.572;2023-04-01T14:29:58;98333.53;;;13.28;100.00
7441;BME280;29616;51.950;8.572;2023-04-01T14:32:35;98338.63;;;13.24;100.00
7441;BME280;29616;51.950;8.572;2023-04-01T14:35:22;98342.00;;;13.13;100.00
7441;BME280;29616;51.950;8.572;2023-04-01T14:37:58;98349.34;;;12.93;100.00
7441;BME280;29616;51.950;8.572;2023-04-01T14:40:33;98345.97;;;12.85;100.00
7441;BME280;29616;51.950;8.572;2023-04-01T14:43:14;98345.13;;;12.91;100.00
7441;BME280;29616;51.950;8.572;2023-04-01T14:46:01;98352.91;;;12.81;100.00
7441;BME280;29616;51.950;8.572;2023-04-01T14:48:37;98354.19;;;12.91;100.00
7441;BME280;29616;51.950;8.572;2023-04-01T14:51:15;98364.75;;;13.01;100.00
7441;BME280;29616;51.950;8.572;2023-04-01T14:53:51;98361.56;;;12.97;100.00
7441;BME280;29616;51.950;8.572;2023-04-01T14:56:40;98365.81;;;13.06;100.00
7441;BME280;29616;51.950;8.572;2023-04-01T14:59:14;98364.75;;;13.01;100.00
7441;BME280;29616;51.950;8.572;2023-04-01T15:01:50;98370.03;;;12.96;100.00
7441;BME280;29616;51.950;8.572;2023-04-01T15:04:26;98370.84;;;12.83;100.00
7441;BME280;29616;51.950;8.572;2023-04-01T15:07:07;98387.09;;;12.85;100.00
7441;BME280;29616;51.950;8.572;2023-04-01T15:09:42;98372.31;;;12.86;100.00
7441;BME280;29616;51.950;8.572;2023-04-01T15:12:18;98387.94;;;12.85;100.00
7441;BME280;29616;51.950;8.572;2023-04-01T15:14:58;98395.50;;;12.83;100.00
7441;BME280;29616;51.950;8.572;2023-04-01T15:17:48;98399.91;;;12.71;100.00